Burwell, NE

4:36 PM CST on December 20, 2014 (GMT -0600)
Sharp | Change Station
CLOSE
Current Station
Airport
Location: Ord,
Elevation: 2070 ft
Nearby Weather Stations

Elev 2070 ft 41.62 °N, 98.95 °W | Updated 2 days ago

Mostly Cloudy
Mostly Cloudy
28 °F
Feels Like 28 °F
N
3
Wind Variable Wind from South
Gusts 5 mph

Today
High -- | Low -- °F
--% Chance of Precip.
Yesterday
High -- | Low -- °F
Precip. -- in
7:59 AM 5:08 PM
Waning Crescent, 2% visible
Pressure 30.23 in
Visibility 4.0 miles
Clouds Overcast 800 ft
Dew Point 27 °F
Humidity 87%
Rainfall 0.00 in
Snow Depth Not available.
UV 1 out of 12
Pollen .10 out of 12
Air Quality Not available.
Flu Activity Not available.
METAR KODX 181753Z AUTO 19008KT 4SM BR OVC008 M04/M05 A3014 RMK AO2 SLP237 T10391050 11039 21050 58003

More Conditions Fewer Conditions

Pressure 30.23 in
Visibility 4.0 miles
Clouds Overcast 800 ft
Dew Point 27 °F
Humidity 87%
Rainfall 0.00 in
Snow Depth Not available.
UV 1 out of 12
Pollen .10 out of 12
Air Quality Not available.
Flu Activity Not available.
METAR KODX 181753Z AUTO 19008KT 4SM BR OVC008 M04/M05 A3014 RMK AO2 SLP237 T10391050 11039 21050 58003

More Conditions Fewer Conditions

10-Day Weather Forecast

Almanac

Astronomy

Dec. 20, 2014 Rise Set
Actual Time
Civil Twilight
Nautical Twilight
Astronomical Twilight
Moon
Length of Visible Light
Length of Day
Tomorrow will be .
, % of the Moon is Illuminated

Today's Extremes

State Highs State Lows

Community

WunderPhotos

Upload Photos

1,779,291 photos uploaded!

WunderBlogs® & News

Nearby

Air Quality

  Air Quality AQ Index Pollutant
Not available.

Snow Depth

Station Depth Elevation

Earthquake Activity

City Distance Mag. Time & Date
Minimum magnitude displayed is 2.5.

Coastal Water Temperatures

Place Temperature

Nearby Weather Stations